Time;durP1;ratioP1;P1;durP2;ratioP2;P2;SDS_P1;SDS_P2;PMS_P1;PMS_P2;Temp;Humidity;BMP_temperature;BMP_pressure;BME280_temperature;BME280_humidity;BME280_pressure;Samples;Min_cycle;Max_cycle;Signal;HPM_P1;HPM_P2
2023/09/02 00:01:14;;;;;;;10.15;9.20;;;14.30;99.90;;;;;;6120370;23;20018;-66
2023/09/02 00:03:39;;;;;;;10.20;9.30;;;14.20;99.90;;;;;;6120742;23;20029;-66
2023/09/02 00:06:05;;;;;;;9.95;9.05;;;14.20;99.90;;;;;;6094654;23;20025;-66
2023/09/02 00:08:31;;;;;;;10.35;9.27;;;14.20;99.90;;;;;;6094251;23;20055;-66
2023/09/02 00:10:56;;;;;;;9.07;8.32;;;14.20;99.90;;;;;;6120145;23;20022;-66
2023/09/02 00:13:22;;;;;;;9.82;8.82;;;14.10;99.90;;;;;;6094917;23;20467;-66
2023/09/02 00:15:47;;;;;;;10.02;9.02;;;14.10;99.90;;;;;;6120503;23;20385;-66
2023/09/02 00:18:13;;;;;;;9.60;8.70;;;14.10;99.90;;;;;;6119982;23;20350;-66
2023/09/02 00:20:38;;;;;;;9.35;8.25;;;14.10;99.90;;;;;;6119516;23;20018;-66
2023/09/02 00:23:04;;;;;;;9.50;8.60;;;14.10;99.90;;;;;;6095152;23;20018;-66
2023/09/02 00:25:30;;;;;;;9.93;8.82;;;14.00;99.90;;;;;;6120678;23;20144;-66
2023/09/02 00:27:55;;;;;;;10.05;8.80;;;14.10;99.90;;;;;;6094226;23;20030;-66
2023/09/02 00:30:21;;;;;;;10.32;8.50;;;14.10;99.90;;;;;;6094747;23;20064;-66
2023/09/02 00:32:47;;;;;;;8.57;7.78;;;14.00;99.90;;;;;;6094862;23;20014;-66
2023/09/02 00:35:13;;;;;;;10.85;7.53;;;14.00;99.90;;;;;;6094594;23;20028;-66
2023/09/02 00:37:38;;;;;;;9.10;8.30;;;14.00;99.90;;;;;;6120345;23;20053;-66
2023/09/02 00:40:06;;;;;;;9.45;8.43;;;14.00;99.90;;;;;;6094780;23;20030;-66
2023/09/02 00:42:33;;;;;;;9.52;8.15;;;14.10;99.90;;;;;;6095060;23;20018;-66
2023/09/02 00:44:59;;;;;;;9.32;8.52;;;14.00;99.90;;;;;;6094308;23;20354;-66
2023/09/02 00:47:25;;;;;;;10.52;9.40;;;14.00;99.90;;;;;;6120537;23;20018;-66
2023/09/02 00:49:51;;;;;;;9.95;8.27;;;14.10;99.90;;;;;;6120543;23;20014;-66
2023/09/02 00:52:18;;;;;;;8.48;7.78;;;14.10;99.90;;;;;;6120951;23;20010;-66
2023/09/02 00:54:44;;;;;;;9.55;8.43;;;14.10;99.90;;;;;;6121172;23;20006;-66
2023/09/02 00:57:09;;;;;;;9.80;8.00;;;14.10;99.90;;;;;;6119335;23;20464;-66
2023/09/02 00:59:35;;;;;;;8.38;7.68;;;14.00;99.90;;;;;;6093276;23;20040;-66
2023/09/02 01:02:03;;;;;;;9.65;7.95;;;14.00;99.90;;;;;;6093915;23;20014;-66
2023/09/02 01:04:29;;;;;;;7.88;7.28;;;13.90;99.90;;;;;;6094774;23;20014;-66
2023/09/02 01:06:55;;;;;;;9.73;8.10;;;13.90;99.90;;;;;;6093333;23;20013;-66
2023/09/02 01:09:21;;;;;;;9.55;8.65;;;13.90;99.90;;;;;;6120373;23;20010;-66
2023/09/02 01:11:48;;;;;;;9.20;8.30;;;13.90;99.90;;;;;;6120267;23;20385;-66
2023/09/02 01:14:14;;;;;;;10.35;8.38;;;13.90;99.90;;;;;;6094803;23;20101;-66
2023/09/02 01:16:40;;;;;;;8.70;7.90;;;13.90;99.90;;;;;;6118867;23;20009;-66
2023/09/02 01:19:08;;;;;;;9.77;8.13;;;13.90;99.90;;;;;;6120392;23;20064;-66
2023/09/02 01:22:12;;;;;;;8.65;7.78;;;13.90;99.90;;;;;;6091646;23;20799;-66
2023/09/02 01:25:01;;;;;;;8.27;7.35;;;14.00;99.90;;;;;;6093104;23;20426;-66
2023/09/02 01:28:06;;;;;;;9.15;8.23;;;14.00;99.90;;;;;;6117709;23;20380;-66
2023/09/02 01:30:33;;;;;;;8.48;7.68;;;14.00;99.90;;;;;;6119309;23;20124;-66
2023/09/02 01:33:02;;;;;;;9.35;7.13;;;14.00;99.90;;;;;;6120217;23;20376;-66
2023/09/02 01:35:33;;;;;;;8.43;7.47;;;13.90;99.90;;;;;;6093749;23;20492;-66
2023/09/02 01:38:00;;;;;;;7.80;7.03;;;13.90;99.90;;;;;;6119860;23;20043;-66
2023/09/02 01:40:27;;;;;;;7.57;6.97;;;13.90;99.90;;;;;;6119818;23;20345;-66
2023/09/02 01:42:58;;;;;;;10.90;7.30;;;13.90;99.90;;;;;;6120196;23;20033;-66
2023/09/02 01:45:29;;;;;;;11.10;7.85;;;13.90;99.90;;;;;;6119790;23;20020;-66
2023/09/02 01:47:56;;;;;;;8.02;7.43;;;13.90;99.90;;;;;;6093393;23;20322;-66
2023/09/02 01:50:26;;;;;;;10.00;7.50;;;13.90;99.90;;;;;;6094041;23;20025;-66
2023/09/02 01:52:53;;;;;;;9.63;8.38;;;13.90;99.90;;;;;;6120204;23;20038;-66
2023/09/02 01:55:19;;;;;;;7.13;6.53;;;13.80;99.90;;;;;;6094022;23;20018;-66
2023/09/02 01:57:45;;;;;;;8.77;7.88;;;13.80;99.90;;;;;;6093222;23;20014;-66
2023/09/02 02:00:11;;;;;;;8.40;7.78;;;13.80;99.90;;;;;;6119610;23;20022;-66
2023/09/02 02:02:38;;;;;;;10.13;8.60;;;13.80;99.90;;;;;;6093960;23;20018;-66
2023/09/02 02:05:06;;;;;;;9.35;8.43;;;13.80;99.90;;;;;;6119972;23;20670;-66
2023/09/02 02:07:34;;;;;;;9.00;8.10;;;13.80;99.90;;;;;;6092637;23;20018;-66
2023/09/02 02:10:03;;;;;;;9.25;8.52;;;13.70;99.90;;;;;;6119937;23;20021;-66
2023/09/02 02:12:29;;;;;;;9.35;8.30;;;13.70;99.90;;;;;;6093772;23;20049;-66
2023/09/02 02:14:54;;;;;;;8.82;7.88;;;13.70;99.90;;;;;;6119797;23;20014;-66
2023/09/02 02:17:20;;;;;;;9.13;8.13;;;13.70;99.90;;;;;;6119195;23;20085;-66
2023/09/02 02:19:46;;;;;;;10.50;8.02;;;13.70;99.90;;;;;;6120008;23;20013;-66
2023/09/02 02:22:11;;;;;;;7.05;6.45;;;13.60;99.90;;;;;;6120235;23;20014;-66
2023/09/02 02:24:37;;;;;;;11.15;6.68;;;13.60;99.90;;;;;;6094241;23;20077;-66
2023/09/02 02:27:03;;;;;;;7.38;6.75;;;13.50;99.90;;;;;;6118952;23;20018;-66
2023/09/02 02:29:28;;;;;;;6.80;6.20;;;13.50;99.90;;;;;;6119758;23;20037;-66
2023/09/02 02:31:55;;;;;;;7.40;6.72;;;13.50;99.90;;;;;;6120156;23;20351;-66
2023/09/02 02:34:23;;;;;;;7.88;7.10;;;13.50;99.90;;;;;;6093904;23;20067;-66
2023/09/02 02:36:49;;;;;;;8.07;7.38;;;13.60;99.90;;;;;;6119064;23;20010;-66
2023/09/02 02:39:14;;;;;;;8.45;7.28;;;13.50;99.90;;;;;;6119889;23;20010;-66
2023/09/02 02:41:40;;;;;;;7.60;6.85;;;13.40;99.90;;;;;;6119845;23;20018;-66
2023/09/02 02:44:06;;;;;;;8.57;6.78;;;13.40;99.90;;;;;;6119880;23;20010;-66
2023/09/02 02:46:31;;;;;;;8.55;7.13;;;13.40;99.90;;;;;;6119157;23;20016;-66
2023/09/02 02:48:57;;;;;;;8.23;7.53;;;13.40;99.90;;;;;;6119434;23;20333;-66
2023/09/02 02:51:23;;;;;;;8.60;7.80;;;13.50;99.90;;;;;;6119079;23;20025;-66
2023/09/02 02:53:48;;;;;;;7.03;6.43;;;13.40;99.90;;;;;;6094072;23;20018;-66
2023/09/02 02:56:14;;;;;;;7.07;6.32;;;13.30;99.90;;;;;;6093324;23;20445;-66
2023/09/02 02:58:40;;;;;;;8.48;7.78;;;13.30;99.90;;;;;;6119040;23;20006;-66
2023/09/02 03:01:07;;;;;;;11.23;9.15;;;13.30;99.90;;;;;;6119078;23;20018;-66
2023/09/02 03:03:35;;;;;;;8.70;7.93;;;13.30;99.90;;;;;;6120306;23;20025;-66
2023/09/02 03:06:02;;;;;;;10.02;9.02;;;13.30;99.90;;;;;;6119247;23;20020;-66
2023/09/02 03:08:28;;;;;;;10.13;9.25;;;13.30;99.90;;;;;;6093001;23;20018;-66
2023/09/02 03:11:00;;;;;;;9.55;7.80;;;13.20;99.90;;;;;;6119042;23;20021;-66
2023/09/02 03:13:27;;;;;;;8.38;7.75;;;13.20;99.90;;;;;;6119760;23;20010;-66
2023/09/02 03:15:53;;;;;;;7.45;6.78;;;13.20;99.90;;;;;;6119377;23;20014;-66
2023/09/02 03:18:20;;;;;;;8.20;7.40;;;13.10;99.90;;;;;;6118930;23;20068;-66
2023/09/02 03:20:45;;;;;;;9.45;8.60;;;13.20;99.90;;;;;;6094540;23;20637;-66
2023/09/02 03:23:11;;;;;;;9.07;8.27;;;13.20;99.90;;;;;;6120893;23;20025;-66
2023/09/02 03:25:37;;;;;;;5.85;4.85;;;13.20;99.90;;;;;;6120950;23;20137;-66
2023/09/02 03:28:03;;;;;;;5.07;4.20;;;13.20;99.90;;;;;;6093567;23;20029;-66
2023/09/02 03:30:30;;;;;;;5.32;4.93;;;13.20;99.90;;;;;;6094300;23;20545;-66
2023/09/02 03:32:56;;;;;;;7.45;6.75;;;13.20;99.90;;;;;;6121127;23;20333;-66
2023/09/02 03:35:22;;;;;;;7.05;6.35;;;13.10;99.90;;;;;;6094490;23;20017;-66
2023/09/02 03:37:47;;;;;;;5.55;5.07;;;13.10;99.90;;;;;;6120082;23;20014;-66
2023/09/02 03:40:13;;;;;;;5.50;5.00;;;13.10;99.90;;;;;;6120171;23;20018;-66
2023/09/02 03:42:38;;;;;;;6.18;5.55;;;13.10;99.90;;;;;;6094949;23;20029;-66
2023/09/02 03:45:05;;;;;;;5.88;5.38;;;13.10;99.90;;;;;;6120319;23;20017;-66
2023/09/02 03:47:33;;;;;;;6.00;5.47;;;13.00;99.90;;;;;;6119980;23;20089;-66
2023/09/02 03:49:59;;;;;;;6.20;5.80;;;13.10;99.90;;;;;;6120001;23;20053;-66
2023/09/02 03:52:25;;;;;;;6.78;6.10;;;13.10;99.90;;;;;;6120962;23;20014;-66
2023/09/02 03:54:50;;;;;;;7.03;6.43;;;13.10;99.90;;;;;;6120280;23;20089;-66
2023/09/02 03:57:16;;;;;;;8.10;6.47;;;13.10;99.90;;;;;;6093638;23;20093;-66
2023/09/02 03:59:41;;;;;;;6.72;6.13;;;13.00;99.90;;;;;;6120835;23;20085;-66
2023/09/02 04:02:07;;;;;;;7.63;6.95;;;13.10;99.90;;;;;;6120151;23;20012;-66
2023/09/02 04:04:33;;;;;;;7.68;7.05;;;13.10;99.90;;;;;;6120393;23;20025;-66
2023/09/02 04:06:59;;;;;;;9.35;8.52;;;13.10;99.90;;;;;;6093122;23;20326;-66
2023/09/02 04:09:25;;;;;;;8.77;8.07;;;13.10;99.90;;;;;;6120887;23;20025;-66
2023/09/02 04:11:50;;;;;;;9.48;8.43;;;13.10;99.90;;;;;;6120116;23;20014;-66
2023/09/02 04:14:16;;;;;;;8.80;8.00;;;13.10;99.90;;;;;;6120713;23;20014;-66
2023/09/02 04:16:42;;;;;;;8.55;7.78;;;13.10;99.90;;;;;;6069307;23;20025;-66
2023/09/02 04:19:08;;;;;;;9.45;8.50;;;13.10;99.90;;;;;;6094790;23;20532;-66
2023/09/02 04:21:33;;;;;;;7.60;7.00;;;13.10;99.90;;;;;;6094160;23;20345;-66
2023/09/02 04:24:00;;;;;;;7.53;6.70;;;13.10;99.90;;;;;;6094914;23;20025;-66
2023/09/02 04:26:26;;;;;;;7.10;6.13;;;13.20;99.90;;;;;;6093384;23;20021;-66
2023/09/02 04:28:52;;;;;;;10.57;6.85;;;13.20;99.90;;;;;;6120258;23;20016;-66
2023/09/02 04:31:18;;;;;;;6.88;6.18;;;13.20;99.90;;;;;;6119878;23;20095;-66
2023/09/02 04:33:43;;;;;;;7.72;6.90;;;13.20;99.90;;;;;;6120323;23;20445;-66
2023/09/02 04:36:09;;;;;;;6.43;5.93;;;13.20;99.90;;;;;;6119668;23;20006;-66
2023/09/02 04:38:35;;;;;;;7.35;6.65;;;13.20;99.90;;;;;;6092763;23;20018;-66
2023/09/02 04:41:05;;;;;;;9.18;7.25;;;13.20;99.90;;;;;;6093185;23;20025;-66
2023/09/02 04:43:30;;;;;;;8.85;8.05;;;13.30;99.90;;;;;;6118915;23;20318;-66
2023/09/02 04:46:00;;;;;;;8.35;7.55;;;13.30;99.90;;;;;;6092938;23;20025;-66
2023/09/02 04:48:26;;;;;;;8.68;7.93;;;13.30;99.90;;;;;;6120616;23;20021;-66
2023/09/02 04:50:55;;;;;;;8.50;7.50;;;13.30;99.90;;;;;;6120297;23;20014;-66
2023/09/02 04:53:21;;;;;;;9.13;8.30;;;13.30;99.90;;;;;;6094596;23;20063;-66
2023/09/02 04:55:47;;;;;;;9.07;8.30;;;13.30;99.90;;;;;;6120046;23;20009;-66
2023/09/02 04:58:13;;;;;;;9.05;8.18;;;13.40;99.90;;;;;;6120054;23;20010;-66
2023/09/02 05:00:40;;;;;;;9.05;8.15;;;13.40;99.90;;;;;;6120492;23;20022;-66
2023/09/02 05:03:05;;;;;;;9.05;7.30;;;13.40;99.90;;;;;;6094783;23;20014;-66
2023/09/02 05:05:34;;;;;;;8.30;7.60;;;13.40;99.90;;;;;;6094119;23;20043;-66
2023/09/02 05:08:00;;;;;;;8.10;6.90;;;13.50;99.90;;;;;;6093693;23;20100;-66
2023/09/02 05:10:25;;;;;;;12.10;8.85;;;13.50;99.90;;;;;;6093965;23;20045;-66
2023/09/02 05:12:51;;;;;;;8.00;7.20;;;13.50;99.90;;;;;;6120448;23;20021;-66
2023/09/02 05:15:17;;;;;;;8.32;7.53;;;13.40;99.90;;;;;;6094138;23;20014;-66
2023/09/02 05:17:42;;;;;;;7.80;6.90;;;13.50;99.90;;;;;;6119800;23;20018;-66
2023/09/02 05:20:09;;;;;;;10.27;8.40;;;13.50;99.90;;;;;;6120179;23;20022;-66
2023/09/02 05:22:34;;;;;;;10.07;9.10;;;13.50;99.90;;;;;;6120270;23;20448;-66
2023/09/02 05:25:01;;;;;;;10.45;9.43;;;13.50;99.90;;;;;;6093754;23;20018;-66
2023/09/02 05:27:27;;;;;;;11.55;10.32;;;13.60;99.90;;;;;;6093628;23;20018;-66
2023/09/02 05:29:52;;;;;;;9.75;8.85;;;13.60;99.90;;;;;;6120088;23;20810;-66
2023/09/02 05:32:18;;;;;;;10.55;9.40;;;13.60;99.90;;;;;;6120888;23;20010;-66
2023/09/02 05:34:44;;;;;;;10.93;9.80;;;13.60;99.90;;;;;;6120680;23;20007;-66
2023/09/02 05:37:09;;;;;;;11.30;10.07;;;13.70;99.90;;;;;;6093328;23;20083;-66
2023/09/02 05:39:35;;;;;;;11.20;10.23;;;13.70;99.90;;;;;;6120688;23;20056;-66
2023/09/02 05:42:01;;;;;;;12.15;10.95;;;13.70;99.90;;;;;;6120505;23;20018;-66
2023/09/02 05:44:26;;;;;;;15.02;11.90;;;13.70;99.90;;;;;;6094375;23;20067;-66
2023/09/02 05:46:52;;;;;;;11.57;10.55;;;13.70;99.90;;;;;;6093431;23;20075;-66
2023/09/02 05:49:18;;;;;;;11.45;10.32;;;13.80;99.90;;;;;;6120397;23;20436;-66
2023/09/02 05:51:43;;;;;;;10.43;9.52;;;13.80;99.90;;;;;;6093853;23;20025;-66
2023/09/02 05:54:09;;;;;;;11.85;10.77;;;13.80;99.90;;;;;;6094231;23;20446;-66
2023/09/02 05:56:38;;;;;;;11.90;10.80;;;13.80;99.90;;;;;;6093058;23;20014;-66
2023/09/02 05:59:05;;;;;;;10.70;9.60;;;13.80;99.90;;;;;;6120551;23;20021;-66
2023/09/02 06:01:31;;;;;;;11.18;9.88;;;13.90;99.90;;;;;;6119902;23;20041;-66
2023/09/02 06:03:56;;;;;;;12.13;11.02;;;13.90;99.90;;;;;;6120963;23;20025;-66
2023/09/02 06:06:22;;;;;;;12.95;11.23;;;13.90;99.90;;;;;;6119827;23;20021;-66
2023/09/02 06:08:48;;;;;;;12.02;10.30;;;13.90;99.90;;;;;;6119781;23;20018;-66
2023/09/02 06:11:14;;;;;;;13.55;11.98;;;14.00;99.90;;;;;;6119521;23;20372;-66
2023/09/02 06:13:40;;;;;;;12.70;11.38;;;14.00;99.90;;;;;;6120654;23;20006;-66
2023/09/02 06:16:06;;;;;;;14.05;12.52;;;14.10;99.90;;;;;;6118123;23;20452;-66
2023/09/02 06:18:33;;;;;;;14.45;11.43;;;14.10;99.90;;;;;;6118566;23;20021;-66
2023/09/02 06:21:07;;;;;;;17.55;13.57;;;14.20;99.90;;;;;;6093057;23;20104;-66
2023/09/02 06:23:32;;;;;;;14.70;13.20;;;14.30;99.90;;;;;;6120000;23;20025;-66
2023/09/02 06:25:59;;;;;;;12.80;11.63;;;14.30;99.90;;;;;;6119702;23;20017;-66
2023/09/02 06:28:26;;;;;;;16.13;11.07;;;14.40;99.90;;;;;;6118885;23;20017;-66
2023/09/02 06:30:52;;;;;;;12.30;11.10;;;14.40;99.90;;;;;;6119273;23;20405;-66
2023/09/02 06:33:20;;;;;;;11.63;10.43;;;14.50;99.90;;;;;;6119382;23;20045;-66
2023/09/02 06:35:46;;;;;;;11.77;10.55;;;14.50;99.90;;;;;;6119650;23;20010;-66
2023/09/02 06:38:12;;;;;;;13.25;11.20;;;14.60;99.90;;;;;;6092561;23;20077;-66
2023/09/02 06:40:37;;;;;;;12.68;11.23;;;14.70;99.90;;;;;;6119149;23;20373;-66
2023/09/02 06:43:03;;;;;;;12.75;11.43;;;14.80;99.90;;;;;;6119975;23;20021;-66
2023/09/02 06:45:29;;;;;;;13.88;12.40;;;14.90;99.90;;;;;;6093113;23;20029;-66
2023/09/02 06:47:54;;;;;;;13.40;12.25;;;15.00;99.90;;;;;;6092763;23;20500;-66
2023/09/02 06:50:20;;;;;;;14.57;13.10;;;15.10;99.90;;;;;;6119021;23;20021;-66
2023/09/02 06:52:46;;;;;;;14.48;12.02;;;15.10;99.90;;;;;;6120035;23;20080;-66
2023/09/02 06:55:13;;;;;;;16.42;14.57;;;15.20;99.90;;;;;;6068911;23;20017;-66
2023/09/02 06:57:42;;;;;;;21.40;13.48;;;15.30;99.90;;;;;;6092637;23;20457;-66
2023/09/02 07:00:08;;;;;;;16.23;14.02;;;15.40;99.90;;;;;;6092993;23;20032;-66
2023/09/02 07:02:34;;;;;;;15.70;14.30;;;15.40;99.90;;;;;;6093247;23;20022;-66
2023/09/02 07:05:00;;;;;;;16.95;15.25;;;15.40;99.90;;;;;;6118502;23;20024;-66
2023/09/02 07:07:25;;;;;;;16.02;14.38;;;15.50;99.90;;;;;;6092565;23;20021;-66
2023/09/02 07:09:52;;;;;;;15.98;14.30;;;15.50;99.90;;;;;;6118441;23;20082;-66
2023/09/02 07:12:17;;;;;;;16.85;14.98;;;15.50;99.90;;;;;;6093776;23;20018;-66
2023/09/02 07:14:43;;;;;;;17.58;14.68;;;15.70;99.90;;;;;;6118668;23;20017;-66
2023/09/02 07:17:08;;;;;;;14.43;12.95;;;15.80;99.90;;;;;;6092296;23;20013;-66
2023/09/02 07:19:34;;;;;;;16.20;14.38;;;15.90;99.90;;;;;;6119632;23;20021;-66
2023/09/02 07:22:00;;;;;;;16.25;14.65;;;16.00;99.90;;;;;;6118095;23;20441;-66
2023/09/02 07:24:25;;;;;;;16.40;14.73;;;16.20;99.90;;;;;;6093402;23;20029;-66
2023/09/02 07:26:51;;;;;;;17.30;14.07;;;16.20;99.90;;;;;;6118208;23;20445;-66
2023/09/02 07:29:16;;;;;;;17.08;15.38;;;16.30;99.90;;;;;;6119844;23;20073;-66
2023/09/02 07:31:42;;;;;;;16.35;14.40;;;16.40;99.90;;;;;;6118151;23;20022;-66
2023/09/02 07:34:09;;;;;;;19.27;15.02;;;16.50;99.90;;;;;;6119678;23;20041;-66
2023/09/02 07:36:35;;;;;;;17.05;15.50;;;16.60;99.90;;;;;;6117980;23;20089;-66
2023/09/02 07:39:00;;;;;;;15.85;14.45;;;16.70;99.90;;;;;;6119626;23;20041;-67
2023/09/02 07:41:26;;;;;;;16.10;13.70;;;16.80;99.90;;;;;;6118385;23;20014;-66
2023/09/02 07:43:51;;;;;;;20.05;15.32;;;16.90;99.90;;;;;;6119092;23;20488;-66
2023/09/02 07:46:17;;;;;;;17.30;14.90;;;16.90;99.90;;;;;;6118721;23;20014;-66
2023/09/02 07:48:43;;;;;;;14.20;12.88;;;16.90;99.90;;;;;;6068164;23;20026;-66
2023/09/02 07:51:09;;;;;;;15.75;13.95;;;17.00;99.90;;;;;;6118362;23;20344;-66
2023/09/02 07:53:34;;;;;;;15.73;14.13;;;17.00;99.90;;;;;;6093347;23;20093;-66
2023/09/02 07:56:00;;;;;;;16.73;15.02;;;17.10;99.90;;;;;;6118394;23;20014;-66
2023/09/02 07:58:26;;;;;;;16.50;14.65;;;17.10;99.90;;;;;;6118159;23;20076;-66
2023/09/02 08:00:56;;;;;;;18.20;14.00;;;17.00;99.90;;;;;;6118368;23;20021;-66
2023/09/02 08:03:21;;;;;;;16.02;14.45;;;17.00;99.90;;;;;;6119090;23;20081;-66
2023/09/02 08:05:47;;;;;;;16.13;14.43;;;17.10;99.90;;;;;;6119261;23;20056;-66
2023/09/02 08:08:13;;;;;;;16.67;14.98;;;17.20;99.90;;;;;;6119440;23;20379;-66
2023/09/02 08:10:39;;;;;;;15.98;14.27;;;17.20;99.90;;;;;;6120105;23;20024;-66
2023/09/02 08:13:05;;;;;;;17.98;15.48;;;17.40;99.90;;;;;;6120916;23;20085;-66
2023/09/02 08:15:31;;;;;;;19.77;16.27;;;17.50;99.90;;;;;;6093700;23;20301;-66
2023/09/02 08:17:56;;;;;;;17.63;15.75;;;17.40;99.90;;;;;;6119648;23;20056;-66
2023/09/02 08:20:22;;;;;;;15.52;14.10;;;17.60;99.90;;;;;;6094009;23;20034;-66
2023/09/02 08:22:48;;;;;;;16.00;14.48;;;17.70;99.90;;;;;;6120106;23;20010;-66
2023/09/02 08:25:13;;;;;;;15.75;13.95;;;17.80;99.90;;;;;;6120030;23;20014;-66
2023/09/02 08:27:43;;;;;;;14.48;13.18;;;17.90;99.90;;;;;;6119548;23;20329;-66
2023/09/02 08:30:10;;;;;;;22.52;16.60;;;18.00;99.90;;;;;;6094041;23;20136;-66
2023/09/02 08:32:35;;;;;;;17.10;15.18;;;18.10;99.90;;;;;;6093987;23;20014;-66
2023/09/02 08:35:01;;;;;;;17.02;15.45;;;18.10;99.90;;;;;;6070112;23;20018;-66
2023/09/02 08:37:26;;;;;;;16.88;14.60;;;18.20;99.90;;;;;;6093456;23;20056;-66
2023/09/02 08:39:52;;;;;;;15.73;14.15;;;18.30;99.90;;;;;;6093396;23;20017;-66
2023/09/02 08:42:18;;;;;;;15.20;13.65;;;18.30;99.90;;;;;;6094118;23;20014;-66
2023/09/02 08:44:46;;;;;;;18.90;15.10;;;18.40;99.90;;;;;;6119922;23;20010;-66
2023/09/02 08:47:11;;;;;;;18.83;13.98;;;18.50;99.90;;;;;;6118570;23;20021;-66
2023/09/02 08:49:38;;;;;;;15.10;13.57;;;18.60;99.90;;;;;;6093535;23;20349;-67
2023/09/02 08:52:08;;;;;;;16.58;14.45;;;18.80;99.90;;;;;;6093660;23;20014;-67
2023/09/02 08:54:34;;;;;;;14.70;12.85;;;19.10;99.90;;;;;;6120373;23;20029;-66
2023/09/02 08:57:01;;;;;;;14.30;12.90;;;19.30;99.90;;;;;;6118230;23;20353;-66
2023/09/02 08:59:28;;;;;;;15.43;13.70;;;19.60;99.90;;;;;;6120671;23;20432;-66
2023/09/02 09:01:56;;;;;;;16.50;13.80;;;19.70;99.90;;;;;;6093623;23;20022;-67
2023/09/02 09:04:22;;;;;;;16.58;14.13;;;19.70;99.90;;;;;;6120694;23;20090;-66
2023/09/02 09:06:48;;;;;;;14.38;12.63;;;19.50;99.90;;;;;;6092651;23;20026;-66
2023/09/02 09:09:16;;;;;;;16.30;13.70;;;19.50;99.90;;;;;;6119996;23;20018;-66
2023/09/02 09:11:43;;;;;;;17.15;12.55;;;19.70;99.90;;;;;;6119699;23;20113;-67
2023/09/02 09:14:30;;;;;;;17.30;12.98;;;19.90;99.90;;;;;;6120123;23;20037;-67
2023/09/02 09:16:56;;;;;;;13.93;12.55;;;20.10;99.90;;;;;;6092067;23;20026;-66
2023/09/02 09:19:26;;;;;;;17.85;14.27;;;20.30;99.90;;;;;;6120558;23;20014;-67
2023/09/02 09:21:52;;;;;;;14.50;12.10;;;20.10;99.90;;;;;;6120471;23;20326;-67
2023/09/02 09:24:17;;;;;;;13.82;12.43;;;20.30;99.90;;;;;;6119859;23;20018;-67
2023/09/02 09:26:44;;;;;;;14.02;12.50;;;20.50;99.90;;;;;;6118981;23;20014;-67
2023/09/02 09:29:15;;;;;;;13.90;11.98;;;20.60;99.90;;;;;;6120337;23;20018;-67
2023/09/02 09:31:41;;;;;;;15.95;12.15;;;20.70;99.90;;;;;;6119469;23;20101;-67
2023/09/02 09:34:07;;;;;;;15.73;12.88;;;20.90;99.90;;;;;;6120304;23;20013;-66
2023/09/02 09:36:33;;;;;;;13.48;12.02;;;21.00;99.90;;;;;;6118777;23;20041;-66
2023/09/02 09:39:07;;;;;;;18.98;12.75;;;21.10;99.90;;;;;;6093968;23;20445;-67
2023/09/02 09:41:35;;;;;;;12.57;11.35;;;21.30;99.90;;;;;;6119681;23;20041;-67
2023/09/02 09:44:07;;;;;;;12.68;11.30;;;21.40;99.90;;;;;;6093930;23;20018;-67
2023/09/02 09:46:51;;;;;;;12.60;11.35;;;21.70;99.90;;;;;;6092826;23;20049;-67
2023/09/02 09:49:26;;;;;;;14.60;10.98;;;21.90;99.90;;;;;;6120102;23;20498;-67
2023/09/02 09:52:09;;;;;;;14.73;12.60;;;21.80;99.90;;;;;;6093483;23;20026;-66
2023/09/02 09:54:42;;;;;;;12.00;10.80;;;21.60;99.90;;;;;;6120157;23;20045;-66
2023/09/02 09:57:16;;;;;;;12.05;10.27;;;21.80;99.90;;;;;;6118592;23;20449;-67
2023/09/02 09:59:52;;;;;;;15.50;10.07;;;21.70;99.90;;;;;;6093621;23;20052;-67
2023/09/02 10:02:19;;;;;;;14.70;12.68;;;21.90;99.90;;;;;;6094173;23;20014;-67
2023/09/02 10:04:55;;;;;;;16.38;10.80;;;21.90;99.90;;;;;;6119729;23;20097;-67
2023/09/02 10:07:31;;;;;;;11.35;10.20;;;22.10;99.90;;;;;;6119156;23;20010;-66
2023/09/02 10:09:58;;;;;;;;;;;22.50;99.90;;;;;;6094137;23;20018;-66
2023/09/02 10:12:23;;;;;;;14.38;10.52;;;22.60;99.90;;;;;;6119798;23;19933;-67
2023/09/02 10:14:50;;;;;;;10.13;8.20;;;22.80;99.90;;;;;;6094232;23;20033;-67
2023/09/02 10:17:17;;;;;;;13.85;7.85;;;22.80;99.90;;;;;;6093295;23;20021;-67
2023/09/02 10:19:45;;;;;;;9.10;7.82;;;22.80;99.90;;;;;;6070264;23;20049;-67
2023/09/02 10:22:19;;;;;;;9.43;7.38;;;22.70;99.90;;;;;;6093254;23;20049;-67
2023/09/02 10:24:57;;;;;;;11.98;7.25;;;22.50;99.90;;;;;;6093715;23;20460;-67
2023/09/02 10:27:23;;;;;;;11.38;7.78;;;22.20;99.90;;;;;;6093202;23;20044;-67
2023/09/02 10:29:56;;;;;;;9.02;7.28;;;21.80;99.90;;;;;;6092990;23;20097;-67
2023/09/02 10:32:28;;;;;;;9.15;7.70;;;21.50;99.90;;;;;;6094187;23;20014;-67
2023/09/02 10:35:13;;;;;;;9.02;7.22;;;21.30;99.90;;;;;;6092807;23;20014;-66
2023/09/02 10:37:55;;;;;;;12.57;9.00;;;21.10;99.90;;;;;;6119394;23;20053;-66
2023/09/02 10:40:22;;;;;;;14.68;9.52;;;21.10;99.90;;;;;;6119478;23;20014;-66
2023/09/02 10:42:49;;;;;;;10.85;9.30;;;21.10;99.90;;;;;;6119812;23;20067;-67
2023/09/02 10:45:16;;;;;;;9.48;8.15;;;21.10;99.90;;;;;;6093057;23;20446;-67
2023/09/02 10:47:43;;;;;;;9.82;8.88;;;21.40;99.90;;;;;;6092591;23;20085;-66
2023/09/02 10:50:09;;;;;;;11.43;9.18;;;21.60;99.90;;;;;;6119048;23;20014;-66
2023/09/02 10:52:35;;;;;;;10.20;9.00;;;21.80;99.90;;;;;;6119877;23;20073;-67
2023/09/02 10:55:08;;;;;;;10.52;7.68;;;22.00;99.90;;;;;;6119334;23;20014;-67
2023/09/02 10:58:05;;;;;;;11.30;7.20;;;22.20;99.90;;;;;;6118691;23;20043;-67
2023/09/02 11:00:31;;;;;;;11.02;7.65;;;22.40;99.90;;;;;;6096826;23;20029;-67
2023/09/02 11:02:58;;;;;;;8.68;7.10;;;22.60;99.90;;;;;;6093877;23;20429;-67
2023/09/02 11:05:27;;;;;;;9.45;6.90;;;22.70;99.90;;;;;;6118768;23;20021;-67
2023/09/02 11:07:53;;;;;;;5.15;4.65;;;22.80;99.90;;;;;;6092430;23;20084;-67
2023/09/02 11:10:19;;;;;;;8.40;5.22;;;22.70;99.90;;;;;;6093019;23;20030;-67
2023/09/02 11:13:00;;;;;;;9.23;6.40;;;22.60;99.90;;;;;;6119523;23;20041;-67
2023/09/02 11:15:29;;;;;;;6.05;5.03;;;22.60;99.90;;;;;;6092934;23;20018;-66
2023/09/02 11:17:55;;;;;;;10.68;6.20;;;22.80;99.90;;;;;;6092619;23;20018;-66
2023/09/02 11:20:28;;;;;;;8.02;6.32;;;22.60;99.90;;;;;;6118514;23;20025;-66
2023/09/02 11:23:04;;;;;;;11.40;7.43;;;22.90;99.90;;;;;;6119381;23;20022;-67
2023/09/02 11:25:37;;;;;;;8.65;5.63;;;22.80;99.90;;;;;;6118934;23;20052;-67
2023/09/02 11:28:07;;;;;;;9.43;7.07;;;22.80;99.90;;;;;;6118648;23;20065;-67
2023/09/02 11:30:35;;;;;;;11.05;7.25;;;22.90;99.90;;;;;;6092984;23;20018;-67
2023/09/02 11:33:01;;;;;;;9.55;6.88;;;22.70;99.90;;;;;;6093673;23;20388;-67
2023/09/02 11:35:34;;;;;;;8.32;6.05;;;22.70;99.90;;;;;;6068132;23;20014;-67
2023/09/02 11:38:01;;;;;;;8.60;5.75;;;22.70;99.90;;;;;;6068152;23;20046;-67
2023/09/02 11:40:28;;;;;;;10.45;7.07;;;22.90;99.90;;;;;;6119641;23;20018;-67
2023/09/02 11:42:54;;;;;;;8.77;6.80;;;22.90;99.90;;;;;;6120187;23;20017;-67
2023/09/02 11:45:22;;;;;;;7.47;6.68;;;22.90;99.90;;;;;;6094124;23;20092;-67
2023/09/02 11:47:49;;;;;;;10.05;6.65;;;23.00;99.90;;;;;;6093343;23;20021;-67
2023/09/02 11:50:19;;;;;;;9.13;7.18;;;23.10;99.90;;;;;;6119582;23;20010;-67
2023/09/02 11:52:45;;;;;;;9.00;6.90;;;23.10;99.90;;;;;;6094418;23;20010;-67
2023/09/02 11:55:16;;;;;;;7.50;6.40;;;23.30;99.90;;;;;;6120398;23;20049;-67
2023/09/02 11:57:43;;;;;;;7.05;6.35;;;23.50;99.90;;;;;;6093612;23;20349;-67
2023/09/02 12:00:15;;;;;;;9.52;6.45;;;23.30;99.90;;;;;;6119102;23;20021;-67
2023/09/02 12:02:41;;;;;;;9.75;5.68;;;23.10;99.90;;;;;;6094504;23;20591;-67
2023/09/02 12:05:07;;;;;;;9.40;6.35;;;22.90;99.90;;;;;;6120073;23;20014;-67
2023/09/02 12:07:35;;;;;;;10.73;6.30;;;22.90;99.90;;;;;;6093452;23;20025;-67
2023/09/02 12:10:15;;;;;;;6.60;4.95;;;22.70;99.90;;;;;;6093445;23;20568;-67
2023/09/02 12:12:46;;;;;;;7.60;5.70;;;22.60;99.90;;;;;;6094828;23;20017;-67
2023/09/02 12:15:19;;;;;;;8.75;5.78;;;22.70;99.90;;;;;;6119937;23;20014;-67
2023/09/02 12:17:46;;;;;;;7.03;5.93;;;22.80;99.90;;;;;;6119513;23;20029;-67
2023/09/02 12:20:13;;;;;;;9.38;5.75;;;23.00;99.90;;;;;;6120039;23;20121;-67
2023/09/02 12:22:43;;;;;;;9.18;5.60;;;23.00;99.90;;;;;;6094251;23;20528;-67
2023/09/02 12:25:29;;;;;;;8.80;5.40;;;23.20;99.90;;;;;;6093796;23;20029;-67
2023/09/02 12:28:10;;;;;;;8.60;5.97;;;23.40;99.90;;;;;;6119504;23;20021;-67
2023/09/02 12:30:36;;;;;;;6.57;5.10;;;23.30;99.90;;;;;;6093656;23;20014;-67
2023/09/02 12:33:03;;;;;;;10.93;5.78;;;23.20;99.90;;;;;;6094040;23;20014;-67
2023/09/02 12:35:29;;;;;;;9.32;5.25;;;23.20;99.90;;;;;;6093694;23;20325;-67
2023/09/02 12:38:01;;;;;;;12.25;5.18;;;23.00;99.90;;;;;;6119583;23;20053;-67
2023/09/02 12:40:27;;;;;;;5.22;3.42;;;22.90;99.90;;;;;;6093786;23;20021;-67